Armour, South Dakota
Current Conditions -  °F | °C
As of 8:53 AM on Wednesday 26 Nov 2014 (Local Time) from KMHE Reporting Station
Blowing Snow Blowing Snow  
Wind Chill: -3°   Ceiling: 800
Heat Index: 15°   Visibility: 5mi
Dew Point: 10°   Wind: 23mph
Humidity: 80%   Direction: 340°NNW
Pressure: 30.24"   Gusts: 32mph
Location:  43.32°N, 98.35°W
Report Text: KMHE 261453Z AUTO 34020G28KT 5SM BLSN OVC008 M09/M12 A3024 RMK AO2 PK WND 34033/1405 UPB31E35SNE31 SLP260 P0000 60000 T10941122 53034
Loading
Personal Weather Stations






























Interactive Weather Map New forecast layout! Learn more

10-Day Weather Forecast

Advertisements
Track Severe Weather on mobile